createdAt,value
2017-05-04T00:01:12.711Z,31.09
2017-05-04T00:02:12.883Z,30.8
2017-05-04T00:03:12.796Z,30.99
2017-05-04T00:04:12.729Z,30.51
2017-05-04T00:05:12.666Z,30.51
2017-05-04T00:06:12.751Z,30.8
2017-05-04T00:07:12.539Z,30.99
2017-05-04T00:08:12.174Z,30.99
2017-05-04T00:09:12.416Z,30.9
2017-05-04T00:10:12.363Z,30.61
2017-05-04T00:11:12.290Z,30.8
2017-05-04T00:12:12.227Z,30.8
2017-05-04T00:13:12.171Z,30.99
2017-05-04T00:14:12.106Z,30.99
2017-05-04T00:15:12.040Z,30.61
2017-05-04T00:16:11.978Z,30.99
2017-05-04T00:17:11.915Z,30.51
2017-05-04T00:18:11.857Z,30.7
2017-05-04T00:19:11.794Z,30.8
2017-05-04T00:20:11.732Z,30.9
2017-05-04T00:21:11.670Z,30.8
2017-05-04T00:22:11.606Z,30.9
2017-05-04T00:23:11.539Z,30.61
2017-05-04T00:24:11.481Z,30.9
2017-05-04T00:25:11.421Z,30.9
2017-05-04T00:26:11.377Z,30.8
2017-05-04T00:27:11.299Z,30.9
2017-05-04T00:28:10.932Z,30.9
2017-05-04T00:29:10.894Z,30.8
2017-05-04T00:30:11.103Z,30.7
2017-05-04T00:31:11.046Z,30.8
2017-05-04T00:32:10.979Z,30.8
2017-05-04T00:33:10.917Z,30.7
2017-05-04T00:34:10.858Z,30.7
2017-05-04T00:35:10.523Z,30.9
2017-05-04T00:36:10.739Z,30.7
2017-05-04T00:37:10.669Z,30.7
2017-05-04T00:38:10.303Z,30.9
2017-05-04T00:39:10.547Z,30.7
2017-05-04T00:40:10.485Z,30.7
2017-05-04T00:41:10.425Z,30.61
2017-05-04T00:42:10.356Z,30.51
2017-05-04T00:43:10.324Z,30.7
2017-05-04T00:44:09.931Z,30.61
2017-05-04T00:45:10.171Z,30.32
2017-05-04T00:46:10.116Z,30.8
2017-05-04T00:47:09.746Z,30.22
2017-05-04T00:48:09.985Z,30.61
2017-05-04T00:49:09.619Z,30.22
2017-05-04T00:50:09.860Z,30.61
2017-05-04T00:51:09.802Z,30.61
2017-05-04T00:52:09.737Z,30.61
2017-05-04T00:53:09.672Z,30.61
2017-05-04T00:54:09.614Z,30.51
2017-05-04T00:55:09.447Z,30.51
2017-05-04T00:56:09.184Z,30.7
2017-05-04T00:57:09.423Z,30.51
2017-05-04T00:58:09.363Z,30.61
2017-05-04T00:59:09.302Z,30.51
2017-05-04T01:00:08.936Z,30.7
2017-05-04T01:01:09.176Z,30.32
2017-05-04T01:02:09.117Z,30.61
2017-05-04T01:03:09.052Z,30.61
2017-05-04T01:04:08.987Z,30.51
2017-05-04T01:05:08.927Z,30.51
2017-05-04T01:06:08.560Z,30.41
2017-05-04T01:07:08.801Z,30.41
2017-05-04T01:08:08.537Z,30.41
2017-05-04T01:09:08.686Z,30.51
2017-05-04T01:10:08.615Z,30.51
2017-05-04T01:11:08.549Z,30.41
2017-05-04T01:12:08.491Z,30.51
2017-05-04T01:13:08.532Z,30.61
2017-05-04T01:14:08.365Z,30.7
2017-05-04T01:15:08.302Z,30.51
2017-05-04T01:16:08.241Z,30.51
2017-05-04T01:17:07.900Z,30.61
2017-05-04T01:18:08.119Z,30.41
2017-05-04T01:19:08.056Z,30.61
2017-05-04T01:20:07.997Z,30.41
2017-05-04T01:21:07.927Z,30.61
2017-05-04T01:22:07.564Z,30.61
2017-05-04T01:23:07.804Z,30.61
2017-05-04T01:24:07.744Z,30.51
2017-05-04T01:25:07.688Z,30.22
2017-05-04T01:26:07.616Z,30.32
2017-05-04T01:27:07.557Z,30.41
2017-05-04T01:28:07.497Z,30.41
2017-05-04T01:29:07.430Z,30.22
2017-05-04T01:30:07.369Z,30.22
2017-05-04T01:31:07.306Z,30.03
2017-05-04T01:32:07.262Z,30.51
2017-05-04T01:33:07.187Z,30.03
2017-05-04T01:34:07.120Z,30.51
2017-05-04T01:35:07.057Z,30.22
2017-05-04T01:36:06.706Z,30.51
2017-05-04T01:37:06.630Z,30.12
2017-05-04T01:38:06.572Z,30.41
2017-05-04T01:39:06.806Z,30.22
2017-05-04T01:40:06.749Z,30.22
2017-05-04T01:41:06.682Z,30.32
2017-05-04T01:42:06.622Z,30.12
2017-05-04T01:43:06.559Z,30.22
2017-05-04T01:44:06.594Z,30.03
2017-05-04T01:45:06.432Z,30.22
2017-05-04T01:46:06.371Z,30.03
2017-05-04T01:47:06.313Z,30.12
2017-05-04T01:48:06.246Z,30.03
2017-05-04T01:49:06.186Z,30.12
2017-05-04T01:50:06.123Z,30.22
2017-05-04T01:51:06.062Z,30.03
2017-05-04T01:52:05.995Z,30.12
2017-05-04T01:53:05.938Z,30.12
2017-05-04T01:54:05.884Z,30.03
2017-05-04T01:55:05.507Z,30.03
2017-05-04T01:56:05.749Z,30.12
2017-05-04T01:57:05.381Z,30.12
2017-05-04T01:58:05.320Z,30.12
2017-05-04T01:59:05.560Z,30.11
2017-05-04T02:00:05.200Z,30.12
2017-05-04T02:01:05.140Z,30.12
2017-05-04T02:02:05.082Z,30.03
2017-05-04T02:03:05.311Z,30.22
2017-05-04T02:04:05.251Z,30.12
2017-05-04T02:05:04.890Z,30.22
2017-05-04T02:06:05.124Z,30.21
2017-05-04T02:07:05.059Z,30.11
2017-05-04T02:08:05.001Z,30.32
2017-05-04T02:09:04.938Z,30.21
2017-05-04T02:10:05.124Z,30.11
2017-05-04T02:11:04.817Z,30.12
2017-05-04T02:12:04.746Z,30.03
2017-05-04T02:13:04.686Z,30.12
2017-05-04T02:14:04.635Z,30.22
2017-05-04T02:15:04.562Z,30.03
2017-05-04T02:16:04.501Z,30.22
2017-05-04T02:17:04.436Z,30.21
2017-05-04T02:18:04.378Z,30.21
2017-05-04T02:19:04.313Z,30.21
2017-05-04T02:20:04.250Z,30.21
2017-05-04T02:21:04.189Z,30.11
2017-05-04T02:22:04.125Z,30.12
2017-05-04T02:23:04.066Z,29.91
2017-05-04T02:24:04.004Z,30.01
2017-05-04T02:25:03.940Z,29.91
2017-05-04T02:26:03.878Z,30.21
2017-05-04T02:27:03.814Z,30.22
2017-05-04T02:28:03.752Z,30.12
2017-05-04T02:29:03.695Z,29.83
2017-05-04T02:30:03.638Z,30.21
2017-05-04T02:31:03.568Z,29.83
2017-05-04T02:32:03.208Z,30.03
2017-05-04T02:33:03.437Z,30.12
2017-05-04T02:34:03.373Z,30.11
2017-05-04T02:35:03.465Z,29.82
2017-05-04T02:36:03.250Z,30.22
2017-05-04T02:37:03.194Z,30.12
2017-05-04T02:38:03.126Z,30.12
2017-05-04T02:39:02.762Z,30.21
2017-05-04T02:40:03.003Z,30.12
2017-05-04T02:41:02.936Z,29.82
2017-05-04T02:42:02.877Z,30.11
2017-05-04T02:43:02.813Z,30.11
2017-05-04T02:44:02.765Z,29.82
2017-05-04T02:45:02.689Z,29.91
2017-05-04T02:46:02.627Z,30.01
2017-05-04T02:47:02.263Z,30.11
2017-05-04T02:48:02.500Z,29.82
2017-05-04T02:49:02.137Z,29.91
2017-05-04T02:50:02.678Z,30.01
2017-05-04T02:51:02.315Z,30.01
2017-05-04T02:52:02.274Z,29.82
2017-05-04T02:53:01.888Z,30.21
2017-05-04T02:54:02.129Z,29.82
2017-05-04T02:55:02.224Z,30.11
2017-05-04T02:56:02.002Z,30.01
2017-05-04T02:57:01.940Z,30.11
2017-05-04T02:58:01.880Z,29.93
2017-05-04T02:59:01.815Z,29.82
2017-05-04T03:00:01.754Z,30.01
2017-05-04T03:01:01.690Z,29.91
2017-05-04T03:02:01.628Z,30.03
2017-05-04T03:03:01.565Z,30.11
2017-05-04T03:04:01.504Z,29.72
2017-05-04T03:05:01.548Z,29.91
2017-05-04T03:06:01.379Z,30.01
2017-05-04T03:07:01.314Z,29.82
2017-05-04T03:08:00.951Z,30.11
2017-05-04T03:09:01.190Z,30.11
2017-05-04T03:10:01.379Z,30.11
2017-05-04T03:11:01.067Z,29.82
2017-05-04T03:12:01.008Z,29.91
2017-05-04T03:13:00.941Z,30.11
2017-05-04T03:14:00.879Z,30.3
2017-05-04T03:15:00.823Z,30.01
2017-05-04T03:16:00.757Z,30.01
2017-05-04T03:17:00.391Z,30.11
2017-05-04T03:18:00.628Z,30.01
2017-05-04T03:19:00.572Z,30.11
2017-05-04T03:20:00.504Z,30.21
2017-05-04T03:21:00.441Z,30.11
2017-05-04T03:22:00.379Z,30.21
2017-05-04T03:23:00.016Z,30.11
2017-05-04T03:24:00.254Z,30.3
2017-05-04T03:25:00.189Z,30.11
2017-05-04T03:26:00.127Z,30.11
2017-05-04T03:27:00.072Z,30.01
2017-05-04T03:28:00.005Z,30.21
2017-05-04T03:28:59.941Z,30.01
2017-05-04T03:29:59.577Z,30.11
2017-05-04T03:30:59.814Z,30.01
2017-05-04T03:31:59.751Z,30.01
2017-05-04T03:32:59.691Z,30.11
2017-05-04T03:33:59.651Z,30.21
2017-05-04T03:34:59.565Z,30.11
2017-05-04T03:35:59.503Z,30.21
2017-05-04T03:36:59.442Z,30.01
2017-05-04T03:37:59.378Z,30.21
2017-05-04T03:38:59.315Z,30.11
2017-05-04T03:39:59.260Z,30.3
2017-05-04T03:40:58.888Z,30.01
2017-05-04T03:41:59.129Z,30.21
2017-05-04T03:42:59.086Z,30.11
2017-05-04T03:43:58.701Z,30.11
2017-05-04T03:44:58.944Z,30.11
2017-05-04T03:45:58.879Z,30.21
2017-05-04T03:46:58.815Z,30.01
2017-05-04T03:47:58.756Z,30.11
2017-05-04T03:48:58.692Z,30.21
2017-05-04T03:49:58.628Z,30.11
2017-05-04T03:50:58.570Z,30.21
2017-05-04T03:51:58.504Z,30.49
2017-05-04T03:52:58.447Z,30.3
2017-05-04T03:53:58.379Z,30.3
2017-05-04T03:54:58.320Z,30.49
2017-05-04T03:55:58.254Z,30.4
2017-05-04T03:56:58.193Z,30.49
2017-05-04T03:57:58.126Z,30.4
2017-05-04T03:58:58.066Z,30.3
2017-05-04T03:59:57.700Z,30.4
2017-05-04T04:00:57.645Z,30.21
2017-05-04T04:01:57.878Z,30.59
2017-05-04T04:02:57.815Z,30.49
2017-05-04T04:03:57.764Z,30.49
2017-05-04T04:04:57.713Z,30.69
2017-05-04T04:05:57.627Z,30.49
2017-05-04T04:06:57.566Z,30.49
2017-05-04T04:07:57.504Z,30.59
2017-05-04T04:08:57.447Z,30.4
2017-05-04T04:09:57.380Z,30.59
2017-05-04T04:10:57.315Z,30.59
2017-05-04T04:11:57.252Z,30.59
2017-05-04T04:12:57.189Z,30.38
2017-05-04T04:13:57.125Z,30.67
2017-05-04T04:14:57.062Z,30.48
2017-05-04T04:15:57.003Z,30.48
2017-05-04T04:16:56.938Z,30.49
2017-05-04T04:17:56.889Z,30.87
2017-05-04T04:18:56.815Z,30.77
2017-05-04T04:19:56.752Z,30.67
2017-05-04T04:20:56.689Z,30.67
2017-05-04T04:21:56.641Z,30.96
2017-05-04T04:22:56.259Z,30.58
2017-05-04T04:23:56.506Z,30.96
2017-05-04T04:24:56.440Z,30.96
2017-05-04T04:25:56.383Z,30.87
2017-05-04T04:26:56.308Z,30.77
2017-05-04T04:27:56.251Z,30.87
2017-05-04T04:28:56.186Z,30.48
2017-05-04T04:29:56.122Z,30.77
2017-05-04T04:30:56.061Z,30.87
2017-05-04T04:31:55.996Z,30.48
2017-05-04T04:32:55.936Z,30.67
2017-05-04T04:33:55.874Z,30.77
2017-05-04T04:34:55.807Z,31.15
2017-05-04T04:35:55.745Z,30.96
2017-05-04T04:36:55.682Z,31.06
2017-05-04T04:37:55.647Z,31.25
2017-05-04T04:38:55.558Z,31.15
2017-05-04T04:39:55.493Z,31.15
2017-05-04T04:40:55.435Z,31.15
2017-05-04T04:41:55.368Z,30.96
2017-05-04T04:42:55.308Z,31.15
2017-05-04T04:43:54.943Z,31.15
2017-05-04T04:44:55.180Z,31.06
2017-05-04T04:45:55.129Z,31.06
2017-05-04T04:46:55.053Z,30.96
2017-05-04T04:47:54.999Z,31.45
2017-05-04T04:48:54.933Z,31.35
2017-05-04T04:49:54.865Z,31.25
2017-05-04T04:50:54.814Z,31.25
2017-05-04T04:51:54.738Z,31.15
2017-05-04T04:52:54.678Z,31.06
2017-05-04T04:53:54.614Z,31.15
2017-05-04T04:54:54.550Z,31.15
2017-05-04T04:55:54.488Z,31.25
2017-05-04T04:56:54.425Z,31.15
2017-05-04T04:57:54.364Z,31.06
2017-05-04T04:58:54.298Z,30.67
2017-05-04T04:59:54.250Z,30.58
2017-05-04T05:00:54.173Z,30.96
2017-05-04T05:01:54.115Z,30.77
2017-05-04T05:02:54.051Z,31.06
2017-05-04T05:03:53.981Z,30.77
2017-05-04T05:04:53.919Z,30.67
2017-05-04T05:05:53.862Z,30.96
2017-05-04T05:06:53.795Z,30.87
2017-05-04T05:07:53.732Z,30.58
2017-05-04T05:08:53.671Z,30.67
2017-05-04T05:09:53.607Z,30.87
2017-05-04T05:10:53.549Z,30.58
2017-05-04T05:11:53.482Z,30.96
2017-05-04T05:12:53.417Z,30.87
2017-05-04T05:13:53.356Z,30.58
2017-05-04T05:14:53.294Z,30.48
2017-05-04T05:15:53.230Z,30.77
2017-05-04T05:16:53.166Z,30.87
2017-05-04T05:17:53.104Z,30.87
2017-05-04T05:18:53.040Z,30.48
2017-05-04T05:19:52.978Z,30.67
2017-05-04T05:20:52.916Z,30.87
2017-05-04T05:21:52.863Z,30.96
2017-05-04T05:22:52.791Z,31.06
2017-05-04T05:23:52.726Z,30.58
2017-05-04T05:24:52.699Z,30.87
2017-05-04T05:25:52.600Z,30.77
2017-05-04T05:26:52.244Z,30.77
2017-05-04T05:27:52.475Z,30.87
2017-05-04T05:28:52.412Z,30.77
2017-05-04T05:29:52.073Z,30.87
2017-05-04T05:30:52.438Z,30.67
2017-05-04T05:31:52.222Z,30.87
2017-05-04T05:32:52.162Z,30.77
2017-05-04T05:33:52.097Z,30.77
2017-05-04T05:34:52.036Z,30.87
2017-05-04T05:35:52.074Z,30.67
2017-05-04T05:36:51.909Z,30.67
2017-05-04T05:37:51.850Z,30.87
2017-05-04T05:38:51.783Z,30.77
2017-05-04T05:39:51.720Z,30.77
2017-05-04T05:40:51.657Z,30.77
2017-05-04T05:41:51.595Z,30.67
2017-05-04T05:42:51.535Z,30.67
2017-05-04T05:43:51.470Z,30.87
2017-05-04T05:44:51.403Z,30.77
2017-05-04T05:45:51.342Z,30.77
2017-05-04T05:46:51.280Z,30.87
2017-05-04T05:47:51.224Z,30.67
2017-05-04T05:48:51.154Z,30.87
2017-05-04T05:49:51.091Z,30.87
2017-05-04T05:50:51.027Z,30.87
2017-05-04T05:51:50.663Z,30.87
2017-05-04T05:52:50.918Z,30.87
2017-05-04T05:53:50.841Z,30.87
2017-05-04T05:54:50.478Z,30.67
2017-05-04T05:55:50.714Z,30.87
2017-05-04T05:56:50.649Z,30.77
2017-05-04T05:57:50.590Z,30.67
2017-05-04T05:58:50.526Z,30.87
2017-05-04T05:59:50.461Z,30.87
2017-05-04T06:00:50.399Z,30.87
2017-05-04T06:01:50.340Z,30.96
2017-05-04T06:02:50.274Z,30.87
2017-05-04T06:03:50.211Z,30.67
2017-05-04T06:04:50.149Z,30.96
2017-05-04T06:05:50.085Z,30.77
2017-05-04T06:06:50.022Z,30.58
2017-05-04T06:07:49.963Z,30.96
2017-05-04T06:08:49.593Z,30.87
2017-05-04T06:09:49.531Z,30.58
2017-05-04T06:10:49.771Z,30.58
2017-05-04T06:11:49.406Z,30.67
2017-05-04T06:12:49.341Z,30.67
2017-05-04T06:13:49.277Z,30.58
2017-05-04T06:14:49.518Z,30.96
2017-05-04T06:15:49.454Z,30.96
2017-05-04T06:16:49.391Z,30.96
2017-05-04T06:17:49.332Z,30.48
2017-05-04T06:18:49.277Z,30.96
2017-05-04T06:19:49.203Z,30.67
2017-05-04T06:20:49.139Z,30.67
2017-05-04T06:21:49.084Z,30.87
2017-05-04T06:22:49.013Z,30.87
2017-05-04T06:23:48.956Z,30.77
2017-05-04T06:24:48.889Z,30.96
2017-05-04T06:25:48.826Z,30.96
2017-05-04T06:26:48.763Z,30.96
2017-05-04T06:27:48.713Z,31.35
2017-05-04T06:28:48.644Z,31.54
2017-05-04T06:29:48.577Z,31.25
2017-05-04T06:30:48.218Z,31.43
2017-05-04T06:31:48.452Z,31.45
2017-05-04T06:32:48.407Z,31.43
2017-05-04T06:33:48.325Z,31.45
2017-05-04T06:34:48.261Z,31.35
2017-05-04T06:35:48.198Z,31.54
2017-05-04T06:36:48.133Z,31.54
2017-05-04T06:37:48.102Z,31.54
2017-05-04T06:38:48.006Z,31.72
2017-05-04T06:39:47.945Z,32.01
2017-05-04T06:40:47.887Z,31.62
2017-05-04T06:41:47.822Z,31.81
2017-05-04T06:42:47.756Z,32.1
2017-05-04T06:43:47.702Z,32.29
2017-05-04T06:44:47.633Z,32.59
2017-05-04T06:45:47.566Z,32.39
2017-05-04T06:46:47.506Z,32.59
2017-05-04T06:47:47.443Z,32.76
2017-05-04T06:48:47.381Z,32.86
2017-05-04T06:49:47.313Z,32.86
2017-05-04T06:50:47.252Z,33.34
2017-05-04T06:51:47.187Z,33.34
2017-05-04T06:52:47.120Z,33.25
2017-05-04T06:53:47.057Z,33.34
2017-05-04T06:54:46.998Z,33.82
2017-05-04T06:55:46.933Z,33.53
2017-05-04T06:56:46.870Z,33.44
2017-05-04T06:57:46.830Z,33.15
2017-05-04T06:58:46.743Z,33.63
2017-05-04T06:59:46.681Z,34.01
2017-05-04T07:00:46.616Z,33.73
2017-05-04T07:01:46.551Z,33.82
2017-05-04T07:02:46.489Z,34.01
2017-05-04T07:03:46.424Z,33.34
2017-05-04T07:04:46.359Z,33.73
2017-05-04T07:05:46.299Z,34.59
2017-05-04T07:06:46.234Z,34.3
2017-05-04T07:07:46.178Z,34
2017-05-04T07:08:46.108Z,34.58
2017-05-04T07:09:46.041Z,34
2017-05-04T07:10:45.979Z,34.67
2017-05-04T07:11:45.914Z,34.48
2017-05-04T07:12:45.861Z,34.29
2017-05-04T07:13:45.784Z,34.29
2017-05-04T07:14:45.720Z,34.48
2017-05-04T07:15:45.671Z,34.86
2017-05-04T07:16:45.595Z,34.67
2017-05-04T07:17:45.530Z,34.67
2017-05-04T07:18:45.488Z,35.06
2017-05-04T07:19:45.400Z,35.25
2017-05-04T07:20:45.334Z,34.86
2017-05-04T07:21:45.270Z,35.44
2017-05-04T07:22:45.206Z,35.54
2017-05-04T07:23:45.141Z,35.54
2017-05-04T07:24:45.082Z,35.44
2017-05-04T07:25:45.012Z,35.16
2017-05-04T07:26:44.952Z,35.25
2017-05-04T07:27:44.896Z,35.44
2017-05-04T07:28:44.828Z,35.64
2017-05-04T07:29:44.760Z,35.54
2017-05-04T07:30:44.693Z,35.73
2017-05-04T07:31:44.628Z,35.93
2017-05-04T07:32:44.564Z,35.91
2017-05-04T07:33:44.503Z,36.02
2017-05-04T07:34:44.431Z,35.83
2017-05-04T07:35:44.367Z,35.73
2017-05-04T07:36:44.298Z,36.02
2017-05-04T07:37:43.935Z,36.02
2017-05-04T07:38:44.173Z,36.11
2017-05-04T07:39:44.108Z,36.19
2017-05-04T07:40:44.042Z,36.31
2017-05-04T07:41:43.979Z,36.41
2017-05-04T07:42:43.913Z,36.39
2017-05-04T07:43:43.853Z,36.31
2017-05-04T07:44:43.785Z,36.69
2017-05-04T07:45:43.719Z,36.97
2017-05-04T07:46:43.655Z,36.87
2017-05-04T07:47:43.589Z,36.79
2017-05-04T07:48:43.525Z,36.97
2017-05-04T07:49:43.464Z,37.18
2017-05-04T07:50:43.396Z,37.08
2017-05-04T07:51:43.330Z,36.89
2017-05-04T07:52:43.270Z,36.77
2017-05-04T07:53:43.203Z,36.97
2017-05-04T07:54:43.137Z,36.87
2017-05-04T07:55:43.090Z,37.26
2017-05-04T07:56:43.007Z,37.35
2017-05-04T07:57:42.944Z,37.26
2017-05-04T07:58:42.880Z,37.26
2017-05-04T07:59:42.509Z,37.16
2017-05-04T08:00:42.753Z,37.35
2017-05-04T08:01:42.391Z,37.35
2017-05-04T08:02:42.319Z,36.89
2017-05-04T08:03:42.553Z,36.79
2017-05-04T08:04:42.489Z,37.18
2017-05-04T08:05:42.424Z,36.99
2017-05-04T08:06:42.368Z,37.18
2017-05-04T08:07:42.305Z,36.89
2017-05-04T08:08:42.235Z,37.01
2017-05-04T08:09:42.170Z,37.01
2017-05-04T08:10:42.104Z,37.1
2017-05-04T08:11:42.040Z,37.1
2017-05-04T08:12:41.979Z,36.71
2017-05-04T08:13:41.907Z,37.29
2017-05-04T08:14:41.846Z,37.29
2017-05-04T08:15:41.783Z,37.87
2017-05-04T08:16:41.715Z,38.93
2017-05-04T08:17:41.654Z,38.64
2017-05-04T08:18:41.594Z,39.04
2017-05-04T08:19:41.226Z,39.12
2017-05-04T08:20:41.462Z,38.93
2017-05-04T08:21:41.399Z,38.83
2017-05-04T08:22:41.341Z,38.56
2017-05-04T08:23:41.274Z,38.56
2017-05-04T08:24:41.214Z,38.46
2017-05-04T08:25:41.161Z,38.37
2017-05-04T08:26:41.084Z,38.46
2017-05-04T08:27:41.018Z,38.68
2017-05-04T08:28:40.956Z,38.49
2017-05-04T08:29:40.893Z,38.49
2017-05-04T08:30:40.831Z,38.58
2017-05-04T08:31:40.767Z,38.49
2017-05-04T08:32:40.709Z,38.29
2017-05-04T08:33:40.657Z,38.29
2017-05-04T08:34:40.582Z,38.1
2017-05-04T08:35:40.514Z,38.39
2017-05-04T08:36:40.454Z,38.29
2017-05-04T08:37:40.419Z,38.49
2017-05-04T08:38:40.352Z,38.31
2017-05-04T08:39:40.267Z,38.21
2017-05-04T08:40:39.898Z,38.41
2017-05-04T08:41:40.144Z,38.21
2017-05-04T08:42:40.074Z,38.31
2017-05-04T08:43:40.013Z,38.6
2017-05-04T08:44:39.952Z,38.21
2017-05-04T08:45:39.899Z,38.51
2017-05-04T08:46:39.823Z,38.6
2017-05-04T08:47:39.764Z,38.51
2017-05-04T08:48:39.702Z,38.6
2017-05-04T08:49:39.638Z,38.91
2017-05-04T08:50:39.277Z,39.2
2017-05-04T08:51:39.926Z,39.18
2017-05-04T08:52:39.565Z,39.11
2017-05-04T08:53:39.387Z,39.11
2017-05-04T08:54:39.328Z,38.91
2017-05-04T08:55:38.962Z,38.91
2017-05-04T08:56:39.203Z,39.59
2017-05-04T08:57:39.149Z,39.29
2017-05-04T08:58:38.781Z,39.59
2017-05-04T08:59:39.018Z,39.39
2017-05-04T09:00:38.960Z,39.69
2017-05-04T09:01:38.887Z,39.59
2017-05-04T09:02:38.829Z,39.39
2017-05-04T09:03:38.769Z,39.49
2017-05-04T09:04:38.702Z,39.39
2017-05-04T09:05:38.650Z,39.39
2017-05-04T09:06:38.587Z,39.49
2017-05-04T09:07:38.517Z,39.39
2017-05-04T09:08:38.456Z,39.39
2017-05-04T09:09:38.400Z,39.49
2017-05-04T09:10:38.392Z,39.39
2017-05-04T09:11:38.269Z,39.49
2017-05-04T09:12:38.208Z,39.29
2017-05-04T09:13:38.153Z,39.49
2017-05-04T09:14:38.080Z,39.29
2017-05-04T09:15:38.021Z,39.59
2017-05-04T09:16:37.957Z,38.91
2017-05-04T09:17:37.895Z,39.11
2017-05-04T09:18:37.838Z,38.43
2017-05-04T09:19:37.771Z,38.53
2017-05-04T09:20:37.807Z,38.33
2017-05-04T09:21:37.679Z,38.43
2017-05-04T09:22:37.585Z,38.23
2017-05-04T09:23:37.535Z,37.85
2017-05-04T09:24:37.461Z,37.75
2017-05-04T09:25:37.753Z,37.46
2017-05-04T09:26:37.338Z,37.75
2017-05-04T09:27:37.286Z,37.65
2017-05-04T09:28:37.213Z,37.75
2017-05-04T09:29:37.154Z,37.65
2017-05-04T09:30:37.113Z,37.75
2017-05-04T09:31:37.027Z,37.85
2017-05-04T09:32:36.970Z,37.65
2017-05-04T09:33:36.904Z,38.23
2017-05-04T09:34:36.842Z,37.85
2017-05-04T09:35:36.785Z,37.46
2017-05-04T09:36:36.719Z,37.27
2017-05-04T09:37:36.375Z,37.46
2017-05-04T09:38:36.595Z,37.65
2017-05-04T09:39:36.533Z,37.95
2017-05-04T09:40:36.599Z,38.14
2017-05-04T09:41:36.416Z,38.04
2017-05-04T09:42:36.347Z,38.33
2017-05-04T09:43:36.287Z,38.43
2017-05-04T09:44:36.222Z,38.43
2017-05-04T09:45:36.365Z,38.43
2017-05-04T09:46:36.114Z,38.43
2017-05-04T09:47:36.034Z,38.53
2017-05-04T09:48:35.976Z,38.53
2017-05-04T09:49:35.917Z,38.53
2017-05-04T09:50:35.853Z,38.43
2017-05-04T09:51:35.802Z,38.91
2017-05-04T09:52:35.729Z,39.11
2017-05-04T09:53:35.667Z,39.01
2017-05-04T09:54:35.615Z,38.81
2017-05-04T09:55:35.243Z,39.49
2017-05-04T09:56:35.177Z,39.59
2017-05-04T09:57:35.423Z,39.39
2017-05-04T09:58:35.056Z,39.41
2017-05-04T09:59:35.336Z,39.32
2017-05-04T10:00:34.933Z,39.41
2017-05-04T10:01:35.173Z,39.41
2017-05-04T10:02:35.113Z,39.51
2017-05-04T10:03:35.056Z,39.2
2017-05-04T10:04:34.997Z,39.39
2017-05-04T10:05:34.928Z,39.39
2017-05-04T10:06:34.562Z,39.49
2017-05-04T10:07:34.804Z,39.61
2017-05-04T10:08:34.739Z,39.59
2017-05-04T10:09:34.386Z,39.61
2017-05-04T10:10:34.416Z,39.51
2017-05-04T10:11:34.555Z,39.7
2017-05-04T10:12:34.504Z,39.61
2017-05-04T10:13:34.436Z,39.61
2017-05-04T10:14:34.384Z,39.61
2017-05-04T10:15:34.660Z,39.51
2017-05-04T10:16:34.259Z,39.8
2017-05-04T10:17:34.200Z,39.7
2017-05-04T10:18:34.141Z,39.51
2017-05-04T10:19:34.074Z,39.41
2017-05-04T10:20:34.002Z,39.7
2017-05-04T10:21:33.945Z,39.8
2017-05-04T10:22:33.881Z,39.99
2017-05-04T10:23:33.828Z,40.09
2017-05-04T10:24:33.756Z,40.19
2017-05-04T10:25:33.695Z,40.19
2017-05-04T10:26:33.633Z,40.09
2017-05-04T10:27:33.577Z,39.61
2017-05-04T10:28:33.533Z,40.19
2017-05-04T10:29:33.481Z,39.7
2017-05-04T10:30:33.686Z,39.61
2017-05-04T10:31:33.344Z,39.61
2017-05-04T10:32:33.266Z,38.83
2017-05-04T10:33:33.202Z,39.22
2017-05-04T10:34:33.154Z,38.83
2017-05-04T10:35:33.211Z,38.35
2017-05-04T10:36:32.715Z,38.16
2017-05-04T10:37:32.956Z,38.54
2017-05-04T10:38:32.897Z,38.35
2017-05-04T10:39:32.843Z,38.64
2017-05-04T10:40:32.569Z,38.54
2017-05-04T10:41:32.712Z,38.25
2017-05-04T10:42:32.648Z,38.35
2017-05-04T10:43:32.591Z,38.16
2017-05-04T10:44:32.530Z,37.77
2017-05-04T10:45:32.475Z,37.67
2017-05-04T10:46:32.402Z,37.77
2017-05-04T10:47:32.348Z,37.96
2017-05-04T10:48:32.282Z,37.58
2017-05-04T10:49:32.222Z,37.56
2017-05-04T10:50:32.158Z,37.75
2017-05-04T10:51:32.105Z,37.77
2017-05-04T10:52:31.733Z,37.48
2017-05-04T10:53:31.974Z,37.46
2017-05-04T10:54:31.919Z,37.48
2017-05-04T10:55:31.847Z,37.46
2017-05-04T10:56:31.790Z,37.29
2017-05-04T10:57:31.727Z,37.17
2017-05-04T10:58:31.665Z,37.1
2017-05-04T10:59:31.609Z,37.17
2017-05-04T11:00:31.265Z,37.17
2017-05-04T11:01:31.183Z,37.38
2017-05-04T11:02:31.427Z,37.27
2017-05-04T11:03:31.068Z,37.37
2017-05-04T11:04:31.400Z,37.29
2017-05-04T11:05:31.385Z,36.88
2017-05-04T11:06:31.298Z,37.08
2017-05-04T11:07:31.220Z,36.9
2017-05-04T11:08:31.135Z,37.38
2017-05-04T11:09:31.335Z,37.17
2017-05-04T11:10:30.935Z,37.29
2017-05-04T11:11:30.879Z,37.29
2017-05-04T11:12:30.833Z,37.58
2017-05-04T11:13:30.749Z,37.67
2017-05-04T11:14:30.689Z,37.38
2017-05-04T11:15:30.622Z,37.1
2017-05-04T11:16:30.559Z,37.38
2017-05-04T11:17:30.500Z,37.67
2017-05-04T11:18:30.441Z,37.67
2017-05-04T11:19:30.375Z,37.67
2017-05-04T11:20:30.316Z,37.38
2017-05-04T11:21:30.272Z,37.48
2017-05-04T11:22:30.189Z,37.77
2017-05-04T11:23:30.130Z,37.77
2017-05-04T11:24:30.078Z,37.67
2017-05-04T11:25:29.708Z,37.77
2017-05-04T11:26:29.945Z,37.58
2017-05-04T11:27:29.581Z,37.67
2017-05-04T11:28:29.821Z,37.77
2017-05-04T11:29:29.767Z,37.67
2017-05-04T11:30:29.696Z,37.96
2017-05-04T11:31:29.644Z,37.67
2017-05-04T11:32:29.575Z,37.77
2017-05-04T11:33:29.516Z,38.06
2017-05-04T11:34:29.452Z,38.16
2017-05-04T11:35:29.388Z,38.16
2017-05-04T11:36:29.331Z,38.06
2017-05-04T11:37:29.275Z,38.25
2017-05-04T11:38:29.207Z,38.25
2017-05-04T11:39:29.145Z,38.16
2017-05-04T11:40:29.084Z,38.16
2017-05-04T11:41:29.024Z,38.45
2017-05-04T11:42:28.966Z,38.06
2017-05-04T11:43:28.913Z,38.06
2017-05-04T11:44:28.837Z,38.25
2017-05-04T11:45:29.002Z,38.45
2017-05-04T11:46:28.720Z,38.45
2017-05-04T11:47:28.653Z,38.54
2017-05-04T11:48:28.589Z,37.87
2017-05-04T11:49:28.530Z,38.35
2017-05-04T11:50:28.469Z,38.25
2017-05-04T11:51:28.423Z,38.16
2017-05-04T11:52:28.346Z,38.54
2017-05-04T11:53:28.284Z,37.96
2017-05-04T11:54:28.224Z,38.45
2017-05-04T11:55:28.162Z,38.25
2017-05-04T11:56:28.099Z,38.25
2017-05-04T11:57:27.740Z,38.64
2017-05-04T11:58:27.674Z,38.16
2017-05-04T11:59:27.916Z,38.25
2017-05-04T12:00:27.853Z,38.25
2017-05-04T12:01:27.493Z,39.32
2017-05-04T12:02:27.732Z,38.06
2017-05-04T12:03:27.667Z,38.45
2017-05-04T12:04:27.315Z,38.64
2017-05-04T12:05:27.550Z,38.64
2017-05-04T12:06:27.487Z,38.74
2017-05-04T12:07:27.126Z,38.45
2017-05-04T12:08:27.381Z,38.45
2017-05-04T12:09:27.310Z,38.16
2017-05-04T12:10:27.245Z,38.54
2017-05-04T12:11:26.969Z,39.22
2017-05-04T12:12:27.124Z,39.22
2017-05-04T12:13:26.759Z,38.35
2017-05-04T12:14:26.994Z,38.54
2017-05-04T12:15:27.023Z,38.35
2017-05-04T12:16:26.570Z,38.06
2017-05-04T12:17:26.810Z,38.16
2017-05-04T12:18:26.762Z,37.58
2017-05-04T12:19:26.687Z,37.58
2017-05-04T12:20:26.725Z,37.38
2017-05-04T12:21:26.570Z,37.29
2017-05-04T12:22:26.503Z,37.19
2017-05-04T12:23:26.439Z,37.58
2017-05-04T12:24:26.388Z,37.38
2017-05-04T12:25:26.705Z,37.48
2017-05-04T12:26:26.255Z,37.1
2017-05-04T12:27:26.195Z,36.9
2017-05-04T12:28:26.135Z,36.9
2017-05-04T12:29:26.084Z,37.1
2017-05-04T12:30:26.166Z,37.1
2017-05-04T12:31:25.959Z,37.29
2017-05-04T12:32:25.892Z,37.1
2017-05-04T12:33:25.874Z,37.29
2017-05-04T12:34:25.790Z,37.29
2017-05-04T12:35:25.576Z,36.8
2017-05-04T12:36:25.645Z,37
2017-05-04T12:37:25.597Z,37.1
2017-05-04T12:38:25.521Z,37
2017-05-04T12:39:25.462Z,37
2017-05-04T12:40:25.410Z,37.1
2017-05-04T12:41:25.333Z,36.42
2017-05-04T12:42:25.278Z,36.61
2017-05-04T12:43:25.229Z,36.71
2017-05-04T12:44:25.149Z,36.42
2017-05-04T12:45:25.093Z,36.61
2017-05-04T12:46:25.039Z,36.42
2017-05-04T12:47:24.969Z,36.32
2017-05-04T12:48:24.905Z,36.42
2017-05-04T12:49:24.854Z,36.22
2017-05-04T12:50:24.483Z,35.94
2017-05-04T12:51:24.723Z,35.84
2017-05-04T12:52:24.661Z,36.13
2017-05-04T12:53:24.600Z,36.03
2017-05-04T12:54:24.538Z,35.64
2017-05-04T12:55:24.176Z,35.92